Time;durP1;ratioP1;P1;durP2;ratioP2;P2;SDS_P1;SDS_P2;PMS_P1;PMS_P2;Temp;Humidity;BMP_temperature;BMP_pressure;BME280_temperature;BME280_humidity;BME280_pressure;Samples;Min_cycle;Max_cycle;Signal;HPM_P1;HPM_P2
2024/01/28 00:02:15;;;;;;;7.53;2.45;;;5.20;99.90;;;;;;5019732;28;20132;-71
2024/01/28 00:04:42;;;;;;;13.52;3.55;;;5.20;99.90;;;;;;5015571;28;20046;-70
2024/01/28 00:07:09;;;;;;;15.68;4.05;;;5.10;99.90;;;;;;5022097;28;20048;-71
2024/01/28 00:09:36;;;;;;;15.93;3.05;;;5.10;99.90;;;;;;5018598;28;20150;-70
2024/01/28 00:12:03;;;;;;;8.98;2.88;;;5.10;99.90;;;;;;5041703;28;20042;-73
2024/01/28 00:14:30;;;;;;;13.27;3.35;;;5.10;99.90;;;;;;5019790;28;20081;-71
2024/01/28 00:16:57;;;;;;;8.60;2.85;;;5.00;99.90;;;;;;5019822;28;20057;-72
2024/01/28 00:19:24;;;;;;;14.63;3.78;;;5.00;99.90;;;;;;5020250;28;20072;-70
2024/01/28 00:21:51;;;;;;;18.50;3.65;;;4.90;99.90;;;;;;5021967;28;20045;-70
2024/01/28 00:24:20;;;;;;;5.80;2.67;;;4.90;99.90;;;;;;5015286;28;20382;-71
2024/01/28 00:26:47;;;;;;;9.35;2.88;;;5.00;99.90;;;;;;5021073;28;20516;-70
2024/01/28 00:29:14;;;;;;;16.00;4.05;;;4.90;99.90;;;;;;5009656;28;20107;-70
2024/01/28 00:31:41;;;;;;;11.48;3.10;;;4.90;99.90;;;;;;5012305;28;20042;-71
2024/01/28 00:34:08;;;;;;;11.63;3.28;;;4.90;99.90;;;;;;5022946;28;20515;-71
2024/01/28 00:36:35;;;;;;;10.85;3.00;;;4.80;99.90;;;;;;5015279;28;20100;-70
2024/01/28 00:39:02;;;;;;;12.02;3.22;;;4.80;99.90;;;;;;5022056;28;20038;-71
2024/01/28 00:41:29;;;;;;;14.65;3.03;;;4.70;99.90;;;;;;5018388;28;20457;-70
2024/01/28 00:43:58;;;;;;;8.20;2.97;;;4.70;99.90;;;;;;5030075;28;20053;-70
2024/01/28 00:46:25;;;;;;;14.35;3.17;;;4.60;99.90;;;;;;5017831;28;20527;-70
2024/01/28 00:48:52;;;;;;;15.55;3.15;;;4.60;99.90;;;;;;5016477;28;20049;-69
2024/01/28 00:51:19;;;;;;;11.57;3.30;;;4.50;99.90;;;;;;5020110;28;20037;-70
2024/01/28 00:53:46;;;;;;;14.77;3.90;;;4.50;99.90;;;;;;5021495;28;20112;-70
2024/01/28 00:56:16;;;;;;;10.70;4.32;;;4.50;99.90;;;;;;5017701;28;20432;-70
2024/01/28 00:58:44;;;;;;;11.13;3.10;;;4.50;99.90;;;;;;5016420;28;20042;-72
2024/01/28 01:01:10;;;;;;;9.80;4.00;;;4.40;99.90;;;;;;5021498;28;20050;-71
2024/01/28 01:03:37;;;;;;;17.58;3.83;;;4.40;99.90;;;;;;5020193;28;20133;-72
2024/01/28 01:06:07;;;;;;;13.65;3.25;;;4.40;99.90;;;;;;5020042;28;20121;-71
2024/01/28 01:08:34;;;;;;;14.02;3.65;;;4.50;99.90;;;;;;5015605;28;20077;-71
2024/01/28 01:11:03;;;;;;;17.70;3.45;;;4.50;99.90;;;;;;5018407;28;20042;-72
2024/01/28 01:13:34;;;;;;;11.27;3.75;;;4.60;99.90;;;;;;5022308;28;20116;-71
2024/01/28 01:16:01;;;;;;;15.77;3.88;;;4.50;99.90;;;;;;5043765;28;20053;-71
2024/01/28 01:18:28;;;;;;;9.05;3.47;;;4.50;99.90;;;;;;5018843;28;20045;-71
2024/01/28 01:20:55;;;;;;;19.73;3.65;;;4.50;99.90;;;;;;5021227;28;20552;-71
2024/01/28 01:23:22;;;;;;;17.45;3.38;;;4.50;99.90;;;;;;5018177;28;20034;-71
2024/01/28 01:25:49;;;;;;;14.73;3.92;;;4.50;99.90;;;;;;5023620;28;20128;-71
2024/01/28 01:28:16;;;;;;;14.32;3.10;;;4.50;99.90;;;;;;5013244;28;20042;-71
2024/01/28 01:30:43;;;;;;;9.68;3.78;;;4.60;99.90;;;;;;5020719;28;20049;-71
2024/01/28 01:33:10;;;;;;;10.02;3.22;;;4.50;99.90;;;;;;5014237;28;20089;-70
2024/01/28 01:35:37;;;;;;;22.38;3.97;;;4.50;99.90;;;;;;5019640;28;20045;-70
2024/01/28 01:38:04;;;;;;;8.07;3.25;;;4.50;99.90;;;;;;5021629;28;20053;-70
2024/01/28 01:40:30;;;;;;;6.70;2.85;;;4.40;99.90;;;;;;5027801;28;20042;-71
2024/01/28 01:42:57;;;;;;;11.98;4.07;;;4.30;99.90;;;;;;5020093;28;20111;-70
2024/01/28 01:45:24;;;;;;;9.80;3.58;;;4.30;99.90;;;;;;5021419;28;20049;-70
2024/01/28 01:47:51;;;;;;;17.45;3.67;;;4.20;99.90;;;;;;5021727;28;20066;-70
2024/01/28 01:50:18;;;;;;;17.25;4.10;;;4.10;99.90;;;;;;5023259;28;20110;-70
2024/01/28 01:52:44;;;;;;;9.82;3.38;;;4.10;99.90;;;;;;5008575;28;20046;-70
2024/01/28 01:55:11;;;;;;;8.70;3.00;;;4.00;99.90;;;;;;5018964;28;20085;-69
2024/01/28 01:57:38;;;;;;;11.60;4.00;;;3.90;99.90;;;;;;5022775;28;20122;-69
2024/01/28 02:00:05;;;;;;;12.35;3.22;;;3.80;99.90;;;;;;5003999;28;20053;-70
2024/01/28 02:02:33;;;;;;;15.52;3.58;;;3.90;99.90;;;;;;5023534;28;20111;-70
2024/01/28 02:04:59;;;;;;;13.20;3.28;;;3.90;99.90;;;;;;5006271;28;20064;-70
2024/01/28 02:07:26;;;;;;;17.13;4.30;;;3.90;99.90;;;;;;5030578;28;20073;-70
2024/01/28 02:09:53;;;;;;;19.00;4.03;;;3.80;99.90;;;;;;5022786;28;20130;-70
2024/01/28 02:12:20;;;;;;;12.23;4.05;;;3.90;99.90;;;;;;5027771;28;20053;-68
2024/01/28 02:14:50;;;;;;;17.60;5.97;;;3.90;99.90;;;;;;5015595;28;20042;-71
2024/01/28 02:17:17;;;;;;;11.70;3.30;;;4.00;99.90;;;;;;5026068;28;20045;-71
2024/01/28 02:19:44;;;;;;;15.95;4.05;;;4.00;99.90;;;;;;5018395;28;20046;-71
2024/01/28 02:22:13;;;;;;;13.82;4.50;;;4.00;99.90;;;;;;5025922;28;20049;-68
2024/01/28 02:24:40;;;;;;;14.32;3.70;;;4.10;99.90;;;;;;5022481;28;20077;-69
2024/01/28 02:27:07;;;;;;;10.98;3.67;;;4.10;99.90;;;;;;5038718;28;20053;-70
2024/01/28 02:29:34;;;;;;;13.85;3.75;;;4.20;99.90;;;;;;5021026;28;20049;-71
2024/01/28 02:32:01;;;;;;;17.15;3.72;;;4.20;99.90;;;;;;5027394;28;20041;-71
2024/01/28 02:34:27;;;;;;;14.63;5.22;;;4.20;99.90;;;;;;5024295;28;20053;-69
2024/01/28 02:36:54;;;;;;;15.15;4.60;;;4.30;99.90;;;;;;5026910;28;20132;-71
2024/01/28 02:39:22;;;;;;;10.73;3.22;;;4.30;99.90;;;;;;5024382;28;20362;-70
2024/01/28 02:41:49;;;;;;;11.85;3.03;;;4.30;99.90;;;;;;5026294;28;20077;-69
2024/01/28 02:44:16;;;;;;;10.05;3.70;;;4.30;99.90;;;;;;5020474;28;20049;-70
2024/01/28 02:46:43;;;;;;;18.85;3.80;;;4.30;99.90;;;;;;5021287;28;20049;-70
2024/01/28 02:49:09;;;;;;;8.15;3.38;;;4.30;99.90;;;;;;5024309;28;20103;-71
2024/01/28 02:51:36;;;;;;;12.52;4.20;;;4.30;99.90;;;;;;5025738;28;20037;-69
2024/01/28 02:54:04;;;;;;;15.82;4.35;;;4.30;99.90;;;;;;5021677;28;20081;-70
2024/01/28 02:56:30;;;;;;;16.95;5.18;;;4.30;99.90;;;;;;5020223;28;20080;-71
2024/01/28 02:58:57;;;;;;;11.07;3.13;;;4.30;99.90;;;;;;5029918;28;20279;-71
2024/01/28 03:01:24;;;;;;;12.18;3.83;;;4.30;99.90;;;;;;5022497;28;20042;-70
2024/01/28 03:03:51;;;;;;;13.38;3.42;;;4.30;99.90;;;;;;5020032;28;20451;-70
2024/01/28 03:06:18;;;;;;;10.98;3.20;;;4.20;99.90;;;;;;5013687;28;20046;-70
2024/01/28 03:08:45;;;;;;;12.65;2.60;;;4.10;99.90;;;;;;5023441;28;20092;-70
2024/01/28 03:11:12;;;;;;;15.45;3.45;;;4.20;99.90;;;;;;5019327;28;20108;-70
2024/01/28 03:13:38;;;;;;;13.40;3.03;;;4.20;99.90;;;;;;5050244;28;20120;-69
2024/01/28 03:16:06;;;;;;;10.43;4.38;;;4.20;99.90;;;;;;5016754;28;20049;-71
2024/01/28 03:18:32;;;;;;;12.95;4.00;;;4.10;99.90;;;;;;5023548;28;20542;-69
2024/01/28 03:20:59;;;;;;;20.02;5.00;;;4.00;99.90;;;;;;5022975;28;20129;-70
2024/01/28 03:23:26;;;;;;;8.45;2.72;;;3.90;99.90;;;;;;5017359;28;20042;-70
2024/01/28 03:25:53;;;;;;;15.82;4.28;;;3.90;99.90;;;;;;5013607;28;20388;-71
2024/01/28 03:28:19;;;;;;;12.48;3.65;;;3.80;99.90;;;;;;5016582;28;20077;-70
2024/01/28 03:30:46;;;;;;;13.13;4.28;;;3.80;99.90;;;;;;5020862;28;20081;-70
2024/01/28 03:33:13;;;;;;;9.63;3.20;;;3.70;99.90;;;;;;5021893;28;20467;-71
2024/01/28 03:35:40;;;;;;;14.38;3.25;;;3.60;99.90;;;;;;5020334;28;20087;-70
2024/01/28 03:38:07;;;;;;;24.52;6.28;;;3.60;99.90;;;;;;5018746;28;20507;-70
2024/01/28 03:40:35;;;;;;;6.90;3.80;;;3.60;99.90;;;;;;5022694;28;20122;-70
2024/01/28 03:43:02;;;;;;;6.30;2.80;;;3.50;99.90;;;;;;5017193;28;20428;-70
2024/01/28 03:45:29;;;;;;;13.80;3.35;;;3.50;99.90;;;;;;5022329;28;20053;-69
2024/01/28 03:47:56;;;;;;;12.82;3.30;;;3.40;99.90;;;;;;5017012;28;20540;-69
2024/01/28 03:50:24;;;;;;;15.13;3.15;;;3.30;99.90;;;;;;5024077;28;20052;-70
2024/01/28 03:52:51;;;;;;;10.68;3.35;;;3.30;99.90;;;;;;5021484;28;20114;-70
2024/01/28 03:55:18;;;;;;;11.68;2.70;;;3.20;99.90;;;;;;5006422;28;20049;-69
2024/01/28 03:57:46;;;;;;;11.52;4.03;;;3.20;99.90;;;;;;5016375;28;20060;-69
2024/01/28 04:00:13;;;;;;;14.75;4.82;;;3.10;99.90;;;;;;5024195;28;20061;-69
2024/01/28 04:02:40;;;;;;;7.75;3.55;;;3.10;99.90;;;;;;5020451;28;20044;-69
2024/01/28 04:05:08;;;;;;;15.32;5.07;;;3.10;99.90;;;;;;5018826;28;20452;-70
2024/01/28 04:07:35;;;;;;;9.80;3.45;;;3.10;99.90;;;;;;5020743;28;20053;-70
2024/01/28 04:10:03;;;;;;;10.52;3.58;;;3.20;99.90;;;;;;5020945;28;20103;-69
2024/01/28 04:12:29;;;;;;;10.85;3.67;;;3.00;99.90;;;;;;5021291;28;20501;-69
2024/01/28 04:14:56;;;;;;;11.85;4.72;;;3.00;99.90;;;;;;5017013;28;20053;-69
2024/01/28 04:17:23;;;;;;;13.13;3.28;;;3.00;99.90;;;;;;5017181;28;20459;-69
2024/01/28 04:19:51;;;;;;;8.93;2.95;;;3.00;99.90;;;;;;5018019;28;20057;-69
2024/01/28 04:22:18;;;;;;;14.55;4.05;;;3.00;99.90;;;;;;5016282;28;20042;-69
2024/01/28 04:24:45;;;;;;;8.57;3.10;;;3.00;99.90;;;;;;5017905;28;20054;-69
2024/01/28 04:27:12;;;;;;;14.20;3.53;;;3.10;99.90;;;;;;5022302;28;20045;-69
2024/01/28 04:29:41;;;;;;;10.20;4.13;;;3.10;99.90;;;;;;5018470;28;20053;-70
2024/01/28 04:32:10;;;;;;;12.05;3.72;;;3.20;99.90;;;;;;5024691;28;20042;-69
2024/01/28 04:34:36;;;;;;;9.65;3.45;;;3.20;99.90;;;;;;5023513;28;20452;-70
2024/01/28 04:37:03;;;;;;;11.75;3.33;;;3.20;99.90;;;;;;5018142;28;20070;-69
2024/01/28 04:39:30;;;;;;;10.55;3.08;;;3.30;99.90;;;;;;5016311;28;20049;-71
2024/01/28 04:41:57;;;;;;;9.63;2.85;;;3.30;99.90;;;;;;5011730;28;20046;-70
2024/01/28 04:44:24;;;;;;;13.10;3.95;;;3.40;99.90;;;;;;5017944;28;20046;-70
2024/01/28 04:46:51;;;;;;;9.93;3.22;;;3.40;99.90;;;;;;5023212;28;20570;-68
2024/01/28 04:49:17;;;;;;;8.35;3.25;;;3.40;99.90;;;;;;5012319;28;20046;-69
2024/01/28 04:51:44;;;;;;;7.22;3.00;;;3.40;99.90;;;;;;5026044;28;20531;-69
2024/01/28 04:54:14;;;;;;;10.80;3.53;;;3.40;99.90;;;;;;5016219;28;20050;-68
2024/01/28 04:56:41;;;;;;;19.40;5.93;;;3.40;99.90;;;;;;5022235;28;20060;-69
2024/01/28 04:59:08;;;;;;;13.00;3.80;;;3.30;99.90;;;;;;5014097;28;20045;-70
2024/01/28 05:01:35;;;;;;;14.32;4.15;;;3.40;99.90;;;;;;5023578;28;20328;-69
2024/01/28 05:04:03;;;;;;;14.63;3.92;;;3.40;99.90;;;;;;5025154;28;20073;-69
2024/01/28 05:06:36;;;;;;;15.80;3.85;;;3.60;99.90;;;;;;5025689;28;20123;-70
2024/01/28 05:09:04;;;;;;;15.60;4.30;;;3.60;99.90;;;;;;5026374;28;20140;-69
2024/01/28 05:11:31;;;;;;;10.90;2.92;;;3.60;99.90;;;;;;5022574;28;20149;-68
2024/01/28 05:13:58;;;;;;;9.65;3.42;;;3.70;99.90;;;;;;5025702;28;20053;-69
2024/01/28 05:16:25;;;;;;;13.27;3.47;;;3.70;99.90;;;;;;5016767;28;20046;-69
2024/01/28 05:18:52;;;;;;;16.38;5.10;;;3.70;99.90;;;;;;5024154;28;20702;-69
2024/01/28 05:21:19;;;;;;;12.55;3.70;;;3.70;99.90;;;;;;5020047;28;20053;-69
2024/01/28 05:23:46;;;;;;;12.70;3.13;;;3.80;99.90;;;;;;5025922;28;20056;-69
2024/01/28 05:26:13;;;;;;;7.30;3.33;;;3.80;99.90;;;;;;5016778;28;20193;-69
2024/01/28 05:28:41;;;;;;;8.80;3.45;;;3.80;99.90;;;;;;5027922;28;20076;-69
2024/01/28 05:31:08;;;;;;;11.48;3.40;;;3.90;99.90;;;;;;5018761;28;20061;-69
2024/01/28 05:33:37;;;;;;;12.95;4.35;;;4.00;99.90;;;;;;5026781;28;20103;-70
2024/01/28 05:36:12;;;;;;;10.27;3.25;;;3.90;99.90;;;;;;5022114;28;20057;-69
2024/01/28 05:38:39;;;;;;;12.25;4.57;;;4.00;99.90;;;;;;5019865;28;20551;-69
2024/01/28 05:41:06;;;;;;;8.93;3.60;;;4.00;99.90;;;;;;5024971;28;20048;-69
2024/01/28 05:43:33;;;;;;;11.20;4.03;;;4.10;99.90;;;;;;5018097;28;20046;-69
2024/01/28 05:46:01;;;;;;;11.07;3.63;;;4.00;99.90;;;;;;5018163;28;20119;-70
2024/01/28 05:48:27;;;;;;;10.27;5.22;;;4.00;99.90;;;;;;5020218;28;20224;-70
2024/01/28 05:50:55;;;;;;;10.95;2.47;;;4.00;99.90;;;;;;5019605;28;20053;-69
2024/01/28 05:53:23;;;;;;;12.88;3.55;;;4.00;99.90;;;;;;5024209;28;20418;-69
2024/01/28 05:55:53;;;;;;;10.55;3.15;;;4.00;99.90;;;;;;5021679;28;20053;-69
2024/01/28 05:58:21;;;;;;;15.02;3.83;;;3.90;99.90;;;;;;5020333;28;20085;-69
2024/01/28 06:00:48;;;;;;;9.10;3.85;;;3.90;99.90;;;;;;5025422;28;20099;-68
2024/01/28 06:03:15;;;;;;;7.72;3.22;;;3.90;99.90;;;;;;5024213;28;20067;-69
2024/01/28 06:05:42;;;;;;;13.65;3.80;;;3.90;99.90;;;;;;5021902;28;20042;-69
2024/01/28 06:08:08;;;;;;;8.07;3.05;;;3.90;99.90;;;;;;5017037;28;20235;-68
2024/01/28 06:10:36;;;;;;;15.48;4.28;;;3.90;99.90;;;;;;5022401;28;20052;-69
2024/01/28 06:13:02;;;;;;;13.15;3.45;;;3.90;99.90;;;;;;5015850;28;20041;-69
2024/01/28 06:15:30;;;;;;;8.70;3.45;;;3.90;99.90;;;;;;5024834;28;20148;-68
2024/01/28 06:17:57;;;;;;;12.65;3.75;;;3.90;99.90;;;;;;5016903;28;20038;-69
2024/01/28 06:20:25;;;;;;;8.60;2.50;;;3.90;99.90;;;;;;5025702;28;20534;-72
2024/01/28 06:22:52;;;;;;;12.63;3.38;;;3.90;99.90;;;;;;5024369;28;20052;-70
2024/01/28 06:25:19;;;;;;;15.80;3.47;;;3.90;99.90;;;;;;5027408;28;20049;-70
2024/01/28 06:27:47;;;;;;;10.15;3.70;;;3.90;99.90;;;;;;5018886;28;20049;-70
2024/01/28 06:30:14;;;;;;;19.13;3.88;;;4.00;99.90;;;;;;5026264;28;20421;-68
2024/01/28 06:32:42;;;;;;;18.92;4.82;;;4.00;99.90;;;;;;5020582;28;20044;-69
2024/01/28 06:35:09;;;;;;;13.20;5.50;;;4.10;99.90;;;;;;5025409;28;20142;-68
2024/01/28 06:37:36;;;;;;;17.50;4.00;;;4.10;99.90;;;;;;5018878;28;20125;-70
2024/01/28 06:40:03;;;;;;;10.82;3.63;;;4.20;99.90;;;;;;5025837;28;20060;-69
2024/01/28 06:42:32;;;;;;;9.27;3.60;;;4.20;99.90;;;;;;5021091;28;20053;-68
2024/01/28 06:45:01;;;;;;;9.98;3.40;;;4.20;99.90;;;;;;5023066;28;20057;-69
2024/01/28 06:47:28;;;;;;;9.00;3.90;;;4.20;99.90;;;;;;5017801;28;20041;-70
2024/01/28 06:49:55;;;;;;;16.63;3.55;;;4.20;99.90;;;;;;5019335;28;20064;-70
2024/01/28 06:52:22;;;;;;;10.30;3.47;;;4.30;99.90;;;;;;5023214;28;20045;-69
2024/01/28 06:54:49;;;;;;;10.35;3.67;;;4.30;99.90;;;;;;5019797;28;20061;-69
2024/01/28 06:57:16;;;;;;;12.65;4.10;;;4.40;99.90;;;;;;5024471;28;20080;-70
2024/01/28 06:59:43;;;;;;;19.73;4.50;;;4.40;99.90;;;;;;5025740;28;20132;-70
2024/01/28 07:02:15;;;;;;;6.55;2.88;;;4.40;99.90;;;;;;5026621;28;20145;-69
2024/01/28 07:04:42;;;;;;;8.55;3.38;;;4.40;99.90;;;;;;5015902;28;20046;-69
2024/01/28 07:07:09;;;;;;;15.80;4.55;;;4.50;99.90;;;;;;5024681;28;20061;-70
2024/01/28 07:09:36;;;;;;;9.85;3.50;;;4.50;99.90;;;;;;5014964;28;20488;-71
2024/01/28 07:12:04;;;;;;;12.90;3.88;;;4.50;99.90;;;;;;5026430;28;20045;-70
2024/01/28 07:14:30;;;;;;;9.45;3.10;;;4.50;99.90;;;;;;5015344;28;20045;-71
2024/01/28 07:16:57;;;;;;;13.70;3.85;;;4.50;99.90;;;;;;5041365;28;20049;-71
2024/01/28 07:19:24;;;;;;;15.35;3.97;;;4.50;99.90;;;;;;5015931;28;20050;-71
2024/01/28 07:21:51;;;;;;;25.02;6.82;;;4.50;99.90;;;;;;5024900;28;20060;-71
2024/01/28 07:24:19;;;;;;;15.55;3.75;;;4.50;99.90;;;;;;5032823;28;20041;-70
2024/01/28 07:26:46;;;;;;;10.10;4.18;;;4.60;99.90;;;;;;5021602;28;20050;-70
2024/01/28 07:29:13;;;;;;;14.73;3.25;;;4.60;99.90;;;;;;5017768;28;20129;-71
2024/01/28 07:31:40;;;;;;;16.13;5.82;;;4.70;99.90;;;;;;5015337;28;20087;-70
2024/01/28 07:34:07;;;;;;;17.58;4.88;;;4.70;99.90;;;;;;5023825;28;20054;-70
2024/01/28 07:36:34;;;;;;;23.70;4.50;;;4.70;99.90;;;;;;5021486;28;20490;-70
2024/01/28 07:39:06;;;;;;;10.70;3.20;;;4.70;99.90;;;;;;5010095;28;20057;-72
2024/01/28 07:41:35;;;;;;;11.50;4.20;;;4.70;99.90;;;;;;5020450;28;20045;-70
2024/01/28 07:44:03;;;;;;;8.05;3.80;;;4.80;99.90;;;;;;5023905;28;20424;-72
2024/01/28 07:46:29;;;;;;;8.45;3.65;;;4.80;99.90;;;;;;5019972;28;20554;-70
2024/01/28 07:48:56;;;;;;;14.02;4.10;;;4.80;99.90;;;;;;5022636;28;20119;-70
2024/01/28 07:51:23;;;;;;;14.50;3.70;;;4.80;99.90;;;;;;5022080;28;20077;-70
2024/01/28 07:53:50;;;;;;;8.25;3.03;;;4.80;99.90;;;;;;5021890;28;20129;-70
2024/01/28 07:56:17;;;;;;;10.57;3.67;;;4.90;99.90;;;;;;4668741;28;10000655;-71
2024/01/28 07:58:44;;;;;;;16.77;3.97;;;4.90;99.90;;;;;;5005919;28;20060;-69
2024/01/28 08:01:12;;;;;;;9.30;3.60;;;5.00;99.90;;;;;;5014972;28;20045;-69
2024/01/28 08:03:38;;;;;;;12.85;4.60;;;5.10;99.90;;;;;;5027015;28;20091;-70
2024/01/28 08:06:07;;;;;;;14.82;4.07;;;5.10;99.90;;;;;;5016781;28;20045;-69
2024/01/28 08:08:34;;;;;;;12.23;4.18;;;5.20;99.90;;;;;;5021054;28;20571;-68
2024/01/28 08:11:01;;;;;;;11.32;4.43;;;5.20;99.90;;;;;;5016988;28;20049;-69
2024/01/28 08:13:28;;;;;;;14.57;4.90;;;5.20;99.90;;;;;;5022317;28;20493;-70
2024/01/28 08:16:01;;;;;;;15.43;4.20;;;5.30;99.90;;;;;;5014160;28;20061;-70
2024/01/28 08:18:28;;;;;;;14.43;3.83;;;5.30;99.90;;;;;;5031268;28;20057;-70
2024/01/28 08:20:56;;;;;;;12.32;3.40;;;5.40;99.90;;;;;;5015462;28;20132;-70
2024/01/28 08:23:23;;;;;;;8.50;3.25;;;5.40;99.90;;;;;;5019550;28;20127;-70
2024/01/28 08:25:50;;;;;;;17.10;5.18;;;5.40;99.90;;;;;;5043322;28;20053;-71
2024/01/28 08:28:17;;;;;;;10.45;4.13;;;5.40;99.90;;;;;;5017411;28;20128;-69
2024/01/28 08:30:45;;;;;;;10.90;3.90;;;5.40;99.90;;;;;;5041101;28;20046;-68
2024/01/28 08:33:12;;;;;;;16.27;5.20;;;5.50;99.90;;;;;;5019194;28;20144;-67
2024/01/28 08:35:39;;;;;;;9.15;4.50;;;5.50;99.90;;;;;;5022796;28;20140;-67
2024/01/28 08:38:08;;;;;;;12.70;3.65;;;5.50;99.90;;;;;;5021206;28;20053;-68
2024/01/28 08:40:35;;;;;;;10.95;4.03;;;5.60;99.90;;;;;;5038185;28;20050;-68
2024/01/28 08:43:04;;;;;;;14.52;4.20;;;5.60;99.90;;;;;;5021402;28;20096;-68
2024/01/28 08:45:31;;;;;;;19.58;4.95;;;5.60;99.90;;;;;;5026073;28;20073;-68
2024/01/28 08:47:59;;;;;;;10.65;3.90;;;5.70;99.90;;;;;;5021513;28;20409;-68
2024/01/28 08:50:26;;;;;;;10.95;4.10;;;5.70;99.90;;;;;;5025960;28;20214;-69
2024/01/28 08:52:53;;;;;;;19.95;5.70;;;5.70;99.90;;;;;;5023509;28;20049;-68
2024/01/28 08:55:20;;;;;;;12.35;4.05;;;5.80;99.90;;;;;;5016467;28;20614;-68
2024/01/28 08:57:47;;;;;;;12.10;4.28;;;5.80;99.90;;;;;;5020685;28;20080;-68
2024/01/28 09:00:14;;;;;;;13.40;4.70;;;5.90;99.90;;;;;;5028737;28;20049;-68
2024/01/28 09:02:41;;;;;;;14.00;4.00;;;5.90;99.90;;;;;;5022075;28;20068;-68
2024/01/28 09:05:10;;;;;;;6.70;4.10;;;5.90;99.90;;;;;;5025555;28;20081;-68
2024/01/28 09:07:37;;;;;;;14.20;3.55;;;6.00;99.90;;;;;;5019738;28;20475;-68
2024/01/28 09:10:04;;;;;;;11.40;3.88;;;6.00;99.90;;;;;;5043741;28;20038;-68
2024/01/28 09:12:31;;;;;;;14.27;4.40;;;6.00;99.90;;;;;;5023665;28;20111;-68
2024/01/28 09:14:58;;;;;;;11.60;3.78;;;6.10;99.90;;;;;;5021430;28;20052;-68
2024/01/28 09:17:24;;;;;;;10.38;4.18;;;6.10;99.90;;;;;;5023677;28;20049;-69
2024/01/28 09:19:51;;;;;;;10.80;3.60;;;6.10;99.90;;;;;;5022183;28;20037;-68
2024/01/28 09:22:18;;;;;;;8.98;3.97;;;6.10;99.90;;;;;;5027217;28;20152;-68
2024/01/28 09:24:45;;;;;;;12.65;5.10;;;6.10;99.90;;;;;;5025240;28;20049;-69
2024/01/28 09:27:12;;;;;;;13.63;6.05;;;6.10;99.90;;;;;;5025009;28;20118;-68
2024/01/28 09:29:39;;;;;;;10.30;3.40;;;6.20;99.90;;;;;;5019318;28;20046;-69
2024/01/28 09:32:06;;;;;;;13.10;4.15;;;6.20;99.90;;;;;;5021671;28;20496;-69
2024/01/28 09:34:33;;;;;;;15.00;4.03;;;6.20;99.90;;;;;;5025293;28;20552;-68
2024/01/28 09:37:00;;;;;;;12.48;3.72;;;6.20;99.90;;;;;;5021847;28;20102;-68
2024/01/28 09:39:29;;;;;;;14.60;3.45;;;6.30;99.90;;;;;;5021850;28;20438;-69
2024/01/28 09:42:32;;;;;;;11.20;3.90;;;6.30;99.90;;;;;;5026196;28;20049;-69
2024/01/28 09:44:59;;;;;;;16.67;4.43;;;6.30;99.90;;;;;;5009206;28;20496;-69
2024/01/28 09:47:25;;;;;;;8.15;3.42;;;6.30;99.90;;;;;;5025804;28;20049;-69
2024/01/28 09:49:52;;;;;;;16.35;3.65;;;6.40;99.90;;;;;;5018014;28;20566;-69
2024/01/28 09:52:19;;;;;;;12.77;4.13;;;6.40;99.90;;;;;;5018009;28;20045;-69
2024/01/28 09:54:46;;;;;;;8.02;3.72;;;6.40;99.90;;;;;;5019489;28;20104;-68
2024/01/28 09:57:14;;;;;;;11.85;3.92;;;6.50;99.90;;;;;;5020623;28;20132;-68
2024/01/28 09:59:41;;;;;;;10.27;3.25;;;6.50;99.90;;;;;;5017024;28;20128;-70
2024/01/28 10:02:08;;;;;;;11.27;3.38;;;6.60;99.90;;;;;;5024052;28;20400;-68
2024/01/28 10:04:35;;;;;;;6.63;3.15;;;6.60;99.90;;;;;;5026348;28;20050;-68
2024/01/28 10:07:03;;;;;;;11.48;3.85;;;6.70;99.90;;;;;;5025468;28;20048;-69
2024/01/28 10:09:30;;;;;;;10.98;4.28;;;6.70;99.90;;;;;;5016170;28;20132;-69
2024/01/28 10:12:01;;;;;;;11.35;3.72;;;6.70;99.90;;;;;;5021964;28;20061;-70
2024/01/28 10:14:27;;;;;;;12.40;4.10;;;6.80;99.90;;;;;;5024079;28;20042;-69
2024/01/28 10:16:56;;;;;;;16.83;4.35;;;6.80;99.90;;;;;;5012066;28;20050;-69
2024/01/28 10:19:23;;;;;;;9.85;3.60;;;6.90;99.90;;;;;;5022586;28;20111;-69
2024/01/28 10:21:51;;;;;;;18.30;5.00;;;6.90;99.90;;;;;;5025355;28;20085;-70
2024/01/28 10:24:18;;;;;;;12.90;4.53;;;7.00;99.90;;;;;;5023640;28;20052;-69
2024/01/28 10:26:45;;;;;;;12.05;3.47;;;7.00;99.90;;;;;;5024674;28;20054;-69
2024/01/28 10:29:12;;;;;;;14.65;4.05;;;7.10;99.90;;;;;;5024285;28;20056;-69
2024/01/28 10:31:39;;;;;;;14.48;4.22;;;7.10;99.90;;;;;;5018795;28;20041;-68
2024/01/28 10:34:08;;;;;;;11.43;4.90;;;7.20;99.90;;;;;;5024053;28;20088;-70
2024/01/28 10:36:36;;;;;;;7.93;4.20;;;7.20;99.90;;;;;;5017251;28;20468;-69
2024/01/28 10:39:04;;;;;;;7.22;2.97;;;7.30;99.90;;;;;;5024409;28;20073;-69
2024/01/28 10:41:34;;;;;;;7.18;3.50;;;7.40;99.90;;;;;;5027370;28;20101;-69
2024/01/28 10:44:07;;;;;;;12.93;3.40;;;7.50;99.90;;;;;;5024298;28;20053;-73
2024/01/28 10:46:39;;;;;;;11.27;3.85;;;7.50;99.90;;;;;;5017343;28;20045;-68
2024/01/28 10:49:07;;;;;;;15.15;4.13;;;7.60;99.90;;;;;;5021628;28;20137;-69
2024/01/28 10:51:38;;;;;;;8.52;3.20;;;7.70;99.90;;;;;;5015231;28;20046;-69
2024/01/28 10:54:10;;;;;;;16.77;3.35;;;7.70;99.90;;;;;;5022963;28;20072;-68
2024/01/28 10:56:37;;;;;;;10.73;3.67;;;7.90;99.90;;;;;;5017239;28;20496;-68
2024/01/28 10:59:04;;;;;;;6.68;2.95;;;7.90;99.90;;;;;;5022447;28;20073;-69
2024/01/28 11:01:31;;;;;;;9.40;3.20;;;8.00;99.90;;;;;;5021338;28;20561;-68
2024/01/28 11:03:58;;;;;;;10.93;3.03;;;8.10;99.90;;;;;;4996342;28;20485;-69
2024/01/28 11:06:26;;;;;;;19.20;3.15;;;8.20;99.90;;;;;;4671377;28;9999701;-68
2024/01/28 11:08:57;;;;;;;20.00;6.30;;;8.20;99.90;;;;;;5016527;28;20049;-69
2024/01/28 11:11:23;;;;;;;8.90;3.03;;;8.30;99.90;;;;;;5016760;28;20471;-68
2024/01/28 11:13:50;;;;;;;10.93;2.80;;;8.30;99.90;;;;;;5012069;28;20297;-68
2024/01/28 11:16:19;;;;;;;9.18;2.65;;;8.40;99.90;;;;;;5016817;28;20109;-69
2024/01/28 11:19:10;;;;;;;7.53;2.90;;;8.50;99.90;;;;;;5015597;28;20138;-68
2024/01/28 11:21:40;;;;;;;9.27;3.10;;;8.50;99.90;;;;;;5018257;28;20045;-68
2024/01/28 11:24:11;;;;;;;9.90;2.75;;;8.60;99.90;;;;;;5018500;28;20508;-68
2024/01/28 11:26:38;;;;;;;9.98;3.05;;;8.70;99.90;;;;;;5019619;28;20053;-68
2024/01/28 11:29:10;;;;;;;8.20;3.20;;;8.80;99.90;;;;;;5017998;28;20056;-69
2024/01/28 11:31:41;;;;;;;17.27;6.32;;;8.90;99.90;;;;;;5020583;28;20319;-68
2024/01/28 11:34:15;;;;;;;12.23;3.85;;;8.90;99.90;;;;;;5015091;28;20057;-68
2024/01/28 11:36:53;;;;;;;8.63;2.80;;;8.90;99.90;;;;;;5017758;28;20096;-69
2024/01/28 11:39:28;;;;;;;16.08;3.83;;;8.90;99.90;;;;;;5016901;28;20037;-69
2024/01/28 11:41:55;;;;;;;10.23;3.45;;;9.00;99.90;;;;;;5019124;28;20056;-69
2024/01/28 11:44:22;;;;;;;15.07;3.85;;;9.00;99.90;;;;;;5017411;28;20110;-69
2024/01/28 11:46:49;;;;;;;15.80;4.50;;;9.10;99.90;;;;;;5018144;28;20050;-68
2024/01/28 11:49:16;;;;;;;10.02;2.70;;;9.20;99.90;;;;;;5016573;28;20091;-70
2024/01/28 11:51:43;;;;;;;12.45;3.20;;;9.20;99.90;;;;;;5018847;28;20050;-69
2024/01/28 11:54:10;;;;;;;6.28;2.17;;;9.30;99.90;;;;;;5009063;28;20076;-69
2024/01/28 11:56:39;;;;;;;7.70;2.92;;;9.40;99.90;;;;;;5007399;28;20053;-71
2024/01/28 11:59:09;;;;;;;11.07;3.08;;;9.40;99.90;;;;;;5011752;28;20053;-70
2024/01/28 12:01:35;;;;;;;7.05;3.13;;;9.40;99.90;;;;;;5007725;28;20266;-69
2024/01/28 12:04:04;;;;;;;7.43;3.00;;;9.50;99.90;;;;;;4999895;28;20064;-69
2024/01/28 12:06:32;;;;;;;6.35;2.78;;;9.50;99.90;;;;;;5022626;28;20045;-69
2024/01/28 12:09:00;;;;;;;7.32;2.65;;;9.50;99.90;;;;;;5020440;28;20045;-68
2024/01/28 12:11:28;;;;;;;12.13;2.75;;;9.50;99.90;;;;;;5019854;28;20317;-69
2024/01/28 12:13:55;;;;;;;18.75;4.53;;;9.50;99.90;;;;;;5025781;28;20414;-70
2024/01/28 12:16:23;;;;;;;12.00;3.90;;;9.60;99.90;;;;;;5015561;28;20045;-70
2024/01/28 12:18:53;;;;;;;8.95;3.67;;;9.50;99.90;;;;;;5021187;28;20501;-69
2024/01/28 12:21:20;;;;;;;7.65;3.30;;;9.60;99.90;;;;;;5018493;28;20049;-70
2024/01/28 12:23:48;;;;;;;12.15;3.90;;;9.60;99.90;;;;;;5020499;28;20057;-70
2024/01/28 12:26:15;;;;;;;9.57;3.63;;;9.60;99.90;;;;;;5019282;28;20475;-71
2024/01/28 12:28:43;;;;;;;13.80;3.60;;;9.50;99.90;;;;;;5002930;28;20381;-70
2024/01/28 12:31:10;;;;;;;12.95;4.07;;;9.60;99.90;;;;;;5033203;28;20053;-70
2024/01/28 12:33:37;;;;;;;9.57;4.13;;;9.60;99.90;;;;;;5018767;28;20129;-70
2024/01/28 12:36:05;;;;;;;11.25;3.97;;;9.70;99.90;;;;;;5009610;28;20054;-70
2024/01/28 12:38:32;;;;;;;12.38;5.00;;;9.70;99.90;;;;;;5020676;28;20422;-69
2024/01/28 12:40:58;;;;;;;11.05;4.10;;;9.70;99.90;;;;;;5014840;28;20459;-68
2024/01/28 12:43:25;;;;;;;14.07;3.97;;;9.70;99.90;;;;;;5020815;28;20056;-69
2024/01/28 12:45:52;;;;;;;18.75;4.00;;;9.70;99.90;;;;;;5014423;28;20057;-68
2024/01/28 12:48:19;;;;;;;12.20;4.95;;;9.70;99.90;;;;;;5022893;28;20056;-68
2024/01/28 12:50:46;;;;;;;11.07;4.25;;;9.70;99.90;;;;;;5021266;28;20099;-67
2024/01/28 12:53:13;;;;;;;14.57;5.43;;;9.70;99.90;;;;;;5020998;28;20049;-68